createdAt,value
2023-05-19T00:01:45.195Z,5.40
2023-05-19T00:11:46.901Z,5.10
2023-05-19T00:21:48.550Z,6.15
2023-05-19T00:31:50.205Z,7.00
2023-05-19T00:41:51.912Z,7.93
2023-05-19T00:51:53.627Z,7.37
2023-05-19T01:01:55.497Z,8.10
2023-05-19T01:11:57.034Z,8.30
2023-05-19T01:22:32.148Z,8.03
2023-05-19T01:32:34.609Z,8.25
2023-05-19T01:42:39.932Z,8.43
2023-05-19T01:52:41.521Z,6.63
2023-05-19T02:03:02.358Z,5.80
2023-05-19T02:13:06.769Z,6.43
2023-05-19T02:23:08.326Z,6.75
2023-05-19T02:33:09.931Z,6.70
2023-05-19T02:43:11.579Z,6.63
2023-05-19T02:53:13.176Z,6.63
2023-05-19T03:03:14.991Z,6.03
2023-05-19T03:13:16.758Z,4.72
2023-05-19T03:23:18.393Z,6.37
2023-05-19T03:33:20.254Z,4.63
2023-05-19T03:43:21.973Z,4.90
2023-05-19T03:53:28.790Z,4.70
2023-05-19T04:03:30.541Z,4.43
2023-05-19T04:13:35.315Z,4.50
2023-05-19T04:23:36.914Z,3.97
2023-05-19T04:33:39.110Z,5.05
2023-05-19T04:43:40.703Z,2.90
2023-05-19T04:53:42.372Z,3.45
2023-05-19T05:03:44.662Z,2.93
2023-05-19T05:13:46.600Z,2.57
2023-05-19T05:23:49.114Z,3.50
2023-05-19T05:33:50.807Z,5.00
2023-05-19T05:43:52.473Z,5.10
2023-05-19T05:53:55.369Z,4.87
2023-05-19T06:03:57.048Z,4.07
2023-05-19T06:13:58.709Z,3.67
2023-05-19T06:24:00.355Z,4.20
2023-05-19T06:34:01.967Z,3.83
2023-05-19T06:44:10.000Z,4.23
2023-05-19T06:54:11.624Z,3.93
2023-05-19T07:04:16.179Z,3.47
2023-05-19T07:14:17.968Z,4.00
2023-05-19T07:24:19.553Z,3.88
2023-05-19T07:34:21.112Z,4.10
2023-05-19T07:44:22.725Z,3.83
2023-05-19T07:54:24.353Z,4.22
2023-05-19T08:04:26.054Z,4.40
2023-05-19T08:14:27.708Z,4.95
2023-05-19T08:24:29.353Z,4.53
2023-05-19T08:34:30.919Z,4.50
2023-05-19T08:44:32.671Z,4.60
2023-05-19T08:54:59.449Z,4.53
2023-05-19T09:05:01.688Z,5.25
2023-05-19T09:15:03.986Z,7.47
2023-05-19T09:25:05.952Z,8.63
2023-05-19T09:35:10.680Z,9.10
2023-05-19T09:45:12.393Z,10.33
2023-05-19T09:55:14.163Z,9.15
2023-05-19T10:05:17.861Z,11.33
2023-05-19T10:15:22.778Z,10.57
2023-05-19T10:25:24.904Z,9.13
2023-05-19T10:35:32.700Z,7.53
2023-05-19T10:45:47.459Z,6.07
2023-05-19T10:55:56.239Z,7.23
2023-05-19T11:06:29.912Z,8.37
2023-05-19T11:16:32.551Z,7.75
2023-05-19T11:26:41.126Z,8.70
2023-05-19T11:36:43.102Z,7.13
2023-05-19T11:46:45.424Z,7.10
2023-05-19T11:56:47.528Z,7.10
2023-05-19T12:06:49.749Z,8.02
2023-05-19T12:16:51.466Z,5.60
2023-05-19T12:27:05.302Z,5.63
2023-05-19T12:37:07.041Z,4.43
2023-05-19T12:47:08.668Z,5.40
2023-05-19T12:57:11.131Z,4.50
2023-05-19T13:07:16.936Z,2.73
2023-05-19T13:17:18.656Z,3.30
2023-05-19T13:27:20.231Z,4.13
2023-05-19T13:37:21.845Z,4.00
2023-05-19T13:47:24.200Z,3.25
2023-05-19T13:57:26.367Z,3.03
2023-05-19T14:07:28.014Z,2.95
2023-05-19T14:17:29.699Z,4.23
2023-05-19T14:27:31.338Z,3.20
2023-05-19T14:37:32.956Z,3.75
2023-05-19T14:47:34.491Z,4.63
2023-05-19T14:57:36.028Z,5.20
2023-05-19T15:07:37.653Z,6.07
2023-05-19T15:17:39.499Z,6.47
2023-05-19T15:27:41.211Z,6.15
2023-05-19T15:37:42.793Z,5.73
2023-05-19T15:47:44.371Z,4.53
2023-05-19T15:57:46.015Z,2.10
2023-05-19T16:07:47.629Z,1.40
2023-05-19T16:17:49.485Z,0.85
2023-05-19T16:27:51.600Z,1.00
2023-05-19T16:37:53.385Z,1.00
2023-05-19T16:47:55.054Z,0.90
2023-05-19T16:57:56.946Z,1.00
2023-05-19T17:07:58.662Z,0.90
2023-05-19T17:18:00.437Z,1.03
2023-05-19T17:28:02.253Z,1.20
2023-05-19T17:38:03.965Z,1.50
2023-05-19T17:48:06.104Z,1.10
2023-05-19T17:58:08.116Z,1.08
2023-05-19T18:08:10.566Z,1.70
2023-05-19T18:18:12.476Z,2.03
2023-05-19T18:28:14.136Z,1.80
2023-05-19T18:38:15.767Z,2.17
2023-05-19T18:48:17.498Z,1.88
2023-05-19T18:58:19.303Z,2.43
2023-05-19T19:08:21.116Z,2.50
2023-05-19T19:18:23.044Z,2.73
2023-05-19T19:28:26.429Z,3.23
2023-05-19T19:38:28.234Z,3.75
2023-05-19T19:48:30.408Z,3.60
2023-05-19T19:58:32.208Z,3.83
2023-05-19T20:08:34.068Z,3.67
2023-05-19T20:18:35.773Z,3.73
2023-05-19T20:28:37.531Z,3.60
2023-05-19T20:38:39.324Z,4.07
2023-05-19T20:48:43.801Z,4.18
2023-05-19T20:58:45.702Z,5.33
2023-05-19T21:08:47.388Z,4.50
2023-05-19T21:18:49.262Z,4.50
2023-05-19T21:28:53.368Z,5.37
2023-05-19T21:38:55.169Z,5.30
2023-05-19T21:48:56.887Z,5.67
2023-05-19T21:58:58.541Z,5.77
2023-05-19T22:09:00.732Z,5.85
2023-05-19T22:19:02.624Z,5.97
2023-05-19T22:29:04.479Z,6.15
2023-05-19T22:39:06.134Z,5.90
2023-05-19T22:49:09.483Z,6.33
2023-05-19T22:59:11.575Z,6.18
2023-05-19T23:09:13.238Z,7.27
2023-05-19T23:19:15.040Z,7.50
2023-05-19T23:29:16.983Z,6.90
2023-05-19T23:39:18.629Z,6.60
2023-05-19T23:49:20.352Z,8.27
2023-05-19T23:59:22.025Z,7.90
